Time;durP1;ratioP1;P1;durP2;ratioP2;P2;SDS_P1;SDS_P2;PMS_P1;PMS_P2;Temp;Humidity;BMP_temperature;BMP_pressure;BME280_temperature;BME280_humidity;BME280_pressure;Samples;Min_cycle;Max_cycle;Signal;HPM_P1;HPM_P2
2021/05/15 00:01:30;;;;;;;13.20;12.07;;;10.10;99.90;;;;;;5052385;28;20211;-63
2021/05/15 00:03:56;;;;;;;12.03;10.83;;;10.00;99.90;;;;;;5052539;28;20599;-64
2021/05/15 00:06:23;;;;;;;13.57;11.37;;;10.00;99.90;;;;;;5052730;28;20182;-65
2021/05/15 00:08:50;;;;;;;13.27;12.00;;;10.00;99.90;;;;;;5052588;28;20257;-64
2021/05/15 00:11:17;;;;;;;13.30;12.17;;;9.90;99.90;;;;;;5052177;28;20185;-65
2021/05/15 00:13:43;;;;;;;13.13;11.90;;;10.00;99.90;;;;;;5052295;28;20568;-64
2021/05/15 00:16:09;;;;;;;12.60;11.47;;;10.00;99.90;;;;;;5052451;28;20167;-63
2021/05/15 00:18:35;;;;;;;12.90;11.43;;;10.00;99.90;;;;;;5052560;28;20652;-64
2021/05/15 00:21:00;;;;;;;13.53;12.03;;;10.00;99.90;;;;;;5051883;28;20340;-64
2021/05/15 00:23:26;;;;;;;11.53;10.43;;;10.10;99.90;;;;;;5052067;28;20203;-64
2021/05/15 00:25:51;;;;;;;11.70;10.60;;;10.10;99.90;;;;;;5052137;28;20182;-63
2021/05/15 00:28:17;;;;;;;11.37;10.27;;;10.10;99.90;;;;;;5052272;28;20220;-64
2021/05/15 00:30:43;;;;;;;11.93;10.73;;;10.10;99.90;;;;;;5051887;28;20561;-63
2021/05/15 00:33:08;;;;;;;10.77;9.67;;;10.20;99.90;;;;;;5051835;28;20630;-65
2021/05/15 00:35:34;;;;;;;10.73;9.53;;;10.20;99.90;;;;;;5052015;28;20190;-65
2021/05/15 00:37:59;;;;;;;10.00;8.97;;;10.30;99.90;;;;;;5052455;28;20817;-63
2021/05/15 00:40:25;;;;;;;10.00;9.10;;;10.30;99.90;;;;;;5051593;28;20672;-65
2021/05/15 00:42:51;;;;;;;11.40;9.60;;;10.30;99.90;;;;;;5052016;28;20248;-64
2021/05/15 00:45:17;;;;;;;10.27;9.27;;;10.30;99.90;;;;;;5051584;28;20183;-64
2021/05/15 00:47:43;;;;;;;9.80;8.90;;;10.20;99.90;;;;;;5050654;28;20174;-65
2021/05/15 00:50:09;;;;;;;10.83;8.57;;;10.10;99.90;;;;;;5033238;28;20273;-64
2021/05/15 00:52:35;;;;;;;9.47;8.57;;;10.00;99.90;;;;;;5051705;28;20244;-65
2021/05/15 00:55:10;;;;;;;9.57;8.70;;;9.90;99.90;;;;;;5051640;28;20175;-66
2021/05/15 00:57:37;;;;;;;10.23;8.87;;;9.80;99.90;;;;;;5051747;28;20171;-64
2021/05/15 01:00:06;;;;;;;9.73;8.47;;;9.70;99.90;;;;;;5051188;28;20644;-64
2021/05/15 01:02:31;;;;;;;10.00;9.10;;;9.70;99.90;;;;;;5051338;28;20199;-64
2021/05/15 01:04:57;;;;;;;10.53;9.60;;;9.70;99.90;;;;;;5051544;28;20179;-64
2021/05/15 01:07:23;;;;;;;9.90;9.00;;;9.60;99.90;;;;;;5051812;28;20178;-63
2021/05/15 01:09:49;;;;;;;10.50;9.50;;;9.50;99.90;;;;;;5051331;28;20236;-64
2021/05/15 01:12:15;;;;;;;10.63;9.53;;;9.60;99.90;;;;;;5051293;28;20179;-64
2021/05/15 01:14:41;;;;;;;12.63;9.40;;;9.60;99.90;;;;;;5051580;28;20171;-64
2021/05/15 01:17:10;;;;;;;9.53;8.50;;;9.50;99.90;;;;;;5051228;28;20687;-64
2021/05/15 01:19:37;;;;;;;12.40;9.43;;;9.60;99.90;;;;;;5051394;28;20178;-66
2021/05/15 01:22:14;;;;;;;9.93;9.03;;;9.60;99.90;;;;;;5050978;28;20261;-66
2021/05/15 01:24:42;;;;;;;9.50;8.60;;;9.60;99.90;;;;;;5051658;28;20249;-64
2021/05/15 01:27:09;;;;;;;11.50;8.87;;;9.70;99.90;;;;;;5051169;28;20169;-64
2021/05/15 01:29:36;;;;;;;9.37;8.47;;;9.80;99.90;;;;;;5051137;28;20175;-64
2021/05/15 01:32:02;;;;;;;10.03;8.53;;;9.90;99.90;;;;;;5051174;28;20175;-64
2021/05/15 01:34:28;;;;;;;8.90;8.10;;;10.00;99.90;;;;;;5050950;28;20210;-65
2021/05/15 01:36:53;;;;;;;8.83;8.00;;;10.10;99.90;;;;;;5051349;28;20729;-64
2021/05/15 01:39:19;;;;;;;8.73;7.43;;;10.10;99.90;;;;;;5051040;28;20178;-64
2021/05/15 01:41:45;;;;;;;9.50;7.47;;;10.20;99.90;;;;;;5050736;28;20206;-66
2021/05/15 01:44:11;;;;;;;7.63;7.00;;;10.30;99.90;;;;;;5051159;28;20252;-65
2021/05/15 01:46:37;;;;;;;9.70;7.63;;;10.30;99.90;;;;;;5050327;28;20258;-65
2021/05/15 01:49:04;;;;;;;7.87;7.13;;;10.30;99.90;;;;;;5051318;28;20167;-66
2021/05/15 01:51:29;;;;;;;7.53;6.73;;;10.30;99.90;;;;;;5050540;28;20190;-67
2021/05/15 01:53:55;;;;;;;7.23;6.70;;;10.30;99.90;;;;;;5051232;28;20191;-64
2021/05/15 01:56:28;;;;;;;6.73;6.13;;;10.30;99.90;;;;;;5050882;28;20643;-64
2021/05/15 01:58:55;;;;;;;7.03;6.50;;;10.30;99.90;;;;;;5051306;28;20228;-64
2021/05/15 02:01:22;;;;;;;7.93;7.10;;;10.20;99.90;;;;;;5050355;28;20210;-65
2021/05/15 02:03:48;;;;;;;7.90;7.20;;;10.30;99.90;;;;;;5053748;28;20194;-65
2021/05/15 02:06:14;;;;;;;7.10;6.40;;;10.10;99.90;;;;;;5054744;28;20181;-66
2021/05/15 02:08:42;;;;;;;8.07;6.37;;;9.90;99.90;;;;;;5055134;28;20174;-66
2021/05/15 02:11:09;;;;;;;7.10;6.50;;;9.90;99.90;;;;;;5054439;28;20175;-65
2021/05/15 02:13:35;;;;;;;7.53;6.73;;;9.80;99.90;;;;;;5036902;28;20199;-65
2021/05/15 02:16:02;;;;;;;7.73;7.13;;;9.60;99.90;;;;;;5054744;28;20640;-65
2021/05/15 02:18:28;;;;;;;13.27;8.00;;;9.50;99.90;;;;;;5054935;28;20245;-65
2021/05/15 02:20:55;;;;;;;10.63;7.03;;;9.60;99.90;;;;;;5054230;28;20556;-66
2021/05/15 02:23:23;;;;;;;8.57;7.87;;;9.60;99.90;;;;;;5054355;28;20702;-66
2021/05/15 02:25:49;;;;;;;8.30;7.70;;;9.70;99.90;;;;;;5054574;28;20167;-64
2021/05/15 02:28:16;;;;;;;9.33;7.63;;;9.70;99.90;;;;;;5037045;28;20166;-65
2021/05/15 02:30:43;;;;;;;7.90;7.20;;;9.70;99.90;;;;;;5054700;28;20652;-66
2021/05/15 02:33:09;;;;;;;8.77;7.83;;;9.80;99.90;;;;;;5054330;28;20297;-64
2021/05/15 02:35:35;;;;;;;8.17;7.47;;;9.90;99.90;;;;;;5054277;28;20182;-66
2021/05/15 02:38:02;;;;;;;9.97;7.90;;;9.90;99.90;;;;;;5054514;28;20175;-66
2021/05/15 02:40:28;;;;;;;7.93;7.13;;;10.00;99.90;;;;;;5054084;28;20676;-66
2021/05/15 02:42:54;;;;;;;7.33;6.73;;;10.00;99.90;;;;;;5054628;28;20187;-64
2021/05/15 02:45:22;;;;;;;7.33;6.63;;;9.90;99.90;;;;;;5053978;28;20209;-65
2021/05/15 02:47:50;;;;;;;11.23;6.57;;;10.10;99.90;;;;;;5054403;28;20167;-64
2021/05/15 02:50:17;;;;;;;6.83;6.20;;;10.10;99.90;;;;;;5053535;28;20183;-65
2021/05/15 02:52:43;;;;;;;8.67;6.27;;;10.10;99.90;;;;;;5054191;28;20332;-67
2021/05/15 02:55:13;;;;;;;6.40;5.83;;;10.10;99.90;;;;;;5054029;28;20193;-65
2021/05/15 02:57:39;;;;;;;6.73;6.23;;;10.10;99.90;;;;;;5054195;28;20241;-66
2021/05/15 03:00:08;;;;;;;6.60;6.10;;;10.10;99.90;;;;;;5053680;28;20540;-66
2021/05/15 03:02:33;;;;;;;5.93;5.40;;;10.10;99.90;;;;;;5053808;28;20719;-68
2021/05/15 03:04:59;;;;;;;6.23;5.67;;;10.00;99.90;;;;;;5053717;28;20309;-66
2021/05/15 03:07:25;;;;;;;6.00;5.50;;;10.00;99.90;;;;;;5053657;28;20167;-66
2021/05/15 03:09:50;;;;;;;6.00;5.40;;;10.10;99.90;;;;;;5053431;28;20540;-66
2021/05/15 03:12:16;;;;;;;7.70;5.40;;;10.10;99.90;;;;;;5053359;28;20565;-68
2021/05/15 03:14:43;;;;;;;5.43;4.97;;;10.20;99.90;;;;;;5053498;28;20179;-68
2021/05/15 03:17:10;;;;;;;5.40;5.00;;;10.10;99.90;;;;;;5053612;28;20179;-65
2021/05/15 03:19:36;;;;;;;5.60;5.10;;;10.20;99.90;;;;;;5053166;28;20170;-67
2021/05/15 03:22:02;;;;;;;6.83;6.30;;;10.20;99.90;;;;;;5053300;28;20225;-68
2021/05/15 03:24:27;;;;;;;5.30;4.90;;;10.20;99.90;;;;;;5053290;28;20715;-68
2021/05/15 03:26:53;;;;;;;5.57;5.07;;;10.10;99.90;;;;;;5053541;28;20177;-67
2021/05/15 03:29:19;;;;;;;6.93;5.70;;;10.20;99.90;;;;;;5053165;28;20202;-67
2021/05/15 03:31:45;;;;;;;8.53;4.93;;;10.20;99.90;;;;;;5053171;28;20175;-67
2021/05/15 03:34:10;;;;;;;5.67;5.27;;;10.20;99.90;;;;;;5053414;28;20218;-68
2021/05/15 03:36:36;;;;;;;5.50;4.97;;;10.20;99.90;;;;;;5053403;28;20659;-67
2021/05/15 03:39:03;;;;;;;5.87;5.07;;;10.10;99.90;;;;;;5053116;28;20183;-66
2021/05/15 03:41:29;;;;;;;5.30;4.90;;;10.20;99.90;;;;;;5052571;28;20695;-65
2021/05/15 03:43:55;;;;;;;7.93;4.53;;;10.10;99.90;;;;;;5053058;28;20211;-66
2021/05/15 03:46:21;;;;;;;5.77;5.23;;;10.10;99.90;;;;;;5052795;28;20231;-67
2021/05/15 03:48:46;;;;;;;5.30;4.80;;;10.10;99.90;;;;;;5053036;28;20687;-68
2021/05/15 03:51:12;;;;;;;5.30;4.90;;;10.10;99.90;;;;;;5052426;28;20553;-66
2021/05/15 03:53:38;;;;;;;5.87;5.17;;;10.10;99.90;;;;;;5052775;28;20190;-66
2021/05/15 03:56:04;;;;;;;5.43;5.10;;;10.10;99.90;;;;;;5052784;28;20182;-67
2021/05/15 03:58:29;;;;;;;5.63;4.90;;;10.20;99.90;;;;;;5052873;28;20240;-66
2021/05/15 04:00:55;;;;;;;5.93;4.97;;;10.20;99.90;;;;;;5052301;28;20198;-68
2021/05/15 04:03:21;;;;;;;5.27;4.80;;;10.20;99.90;;;;;;5052550;28;20191;-66
2021/05/15 04:05:46;;;;;;;5.47;5.07;;;10.20;99.90;;;;;;5034816;28;20179;-68
2021/05/15 04:08:12;;;;;;;5.23;4.87;;;10.30;99.90;;;;;;5052588;28;20171;-67
2021/05/15 04:10:38;;;;;;;5.10;4.70;;;10.30;99.90;;;;;;5052206;28;20170;-68
2021/05/15 04:13:15;;;;;;;5.60;5.10;;;10.30;99.90;;;;;;5052458;28;20321;-67
2021/05/15 04:18:21;;;;;;;5.20;4.80;;;10.30;99.90;;;;;;5050982;28;20784;-66
2021/05/15 04:20:47;;;;;;;4.60;4.30;;;10.30;99.90;;;;;;5051116;28;20325;-67
2021/05/15 04:23:13;;;;;;;4.73;4.33;;;10.40;99.90;;;;;;5051233;28;20552;-66
2021/05/15 04:25:39;;;;;;;5.43;5.10;;;10.50;99.90;;;;;;5051251;28;20211;-65
2021/05/15 04:28:07;;;;;;;5.10;4.80;;;10.60;99.90;;;;;;5052264;28;20171;-66
2021/05/15 04:30:33;;;;;;;4.37;4.07;;;10.60;99.90;;;;;;5051603;28;20190;-66
2021/05/15 04:33:00;;;;;;;5.70;5.17;;;10.60;99.90;;;;;;5052007;28;20198;-66
2021/05/15 04:35:26;;;;;;;5.63;5.07;;;10.70;99.90;;;;;;5051735;28;20193;-65
2021/05/15 04:37:52;;;;;;;5.50;5.13;;;10.70;99.90;;;;;;5052172;28;20549;-65
2021/05/15 04:40:18;;;;;;;5.03;4.63;;;10.70;99.90;;;;;;5051640;28;20178;-65
2021/05/15 04:42:43;;;;;;;4.90;4.60;;;10.70;99.90;;;;;;5052046;28;20237;-66
2021/05/15 04:45:11;;;;;;;7.10;4.70;;;10.60;99.90;;;;;;5051730;28;20179;-65
2021/05/15 04:47:38;;;;;;;4.97;4.67;;;10.60;99.90;;;;;;5051687;28;20175;-68
2021/05/15 04:50:06;;;;;;;5.23;4.83;;;10.60;99.90;;;;;;5051689;28;20178;-68
2021/05/15 04:52:31;;;;;;;5.30;4.90;;;10.60;99.90;;;;;;5051516;28;20702;-67
2021/05/15 04:54:57;;;;;;;5.30;4.60;;;10.60;99.90;;;;;;5051974;28;20194;-66
2021/05/15 04:57:23;;;;;;;5.63;5.23;;;10.60;99.90;;;;;;5051508;28;20179;-67
2021/05/15 04:59:49;;;;;;;5.60;5.20;;;10.60;99.90;;;;;;5051529;28;20179;-67
2021/05/15 05:02:14;;;;;;;5.70;5.20;;;10.60;99.90;;;;;;5051502;28;20212;-66
2021/05/15 05:04:40;;;;;;;5.73;5.20;;;10.70;99.90;;;;;;5051531;28;20671;-66
2021/05/15 05:07:06;;;;;;;6.13;5.63;;;10.70;99.90;;;;;;5051747;28;20178;-65
2021/05/15 05:09:31;;;;;;;6.13;5.73;;;10.80;99.90;;;;;;5051296;28;20182;-66
2021/05/15 05:11:57;;;;;;;6.27;5.67;;;10.80;99.90;;;;;;5051519;28;20178;-65
2021/05/15 05:14:24;;;;;;;6.90;6.20;;;10.90;99.90;;;;;;5051604;28;20190;-65
2021/05/15 05:16:51;;;;;;;8.73;7.83;;;11.00;99.90;;;;;;5051324;28;20247;-65
2021/05/15 05:19:16;;;;;;;6.87;6.30;;;11.00;99.90;;;;;;5051608;28;20182;-66
2021/05/15 05:21:42;;;;;;;7.20;5.60;;;11.10;99.90;;;;;;5050963;28;20207;-66
2021/05/15 05:24:08;;;;;;;7.23;6.13;;;11.10;99.90;;;;;;5051461;28;20595;-66
2021/05/15 05:26:38;;;;;;;7.17;6.50;;;11.10;99.90;;;;;;5051330;28;20667;-67
2021/05/15 05:29:09;;;;;;;6.80;6.20;;;11.10;99.90;;;;;;5051644;28;20175;-66
2021/05/15 05:31:36;;;;;;;6.40;5.90;;;11.10;99.90;;;;;;5050775;28;20183;-67
2021/05/15 05:34:03;;;;;;;6.60;6.10;;;11.20;99.90;;;;;;5051430;28;20218;-67
2021/05/15 05:36:29;;;;;;;6.63;5.70;;;11.20;99.90;;;;;;5051602;28;20236;-65
2021/05/15 05:38:54;;;;;;;6.17;5.70;;;11.20;99.90;;;;;;5055592;28;20179;-66
2021/05/15 05:41:22;;;;;;;6.53;5.70;;;11.10;99.90;;;;;;5054804;28;20241;-66
2021/05/15 05:43:48;;;;;;;6.70;6.20;;;11.20;99.90;;;;;;5055184;28;20221;-66
2021/05/15 05:46:13;;;;;;;6.07;5.50;;;11.30;99.90;;;;;;5055409;28;20174;-68
2021/05/15 05:48:39;;;;;;;9.13;5.73;;;11.30;99.90;;;;;;5055420;28;20191;-67
2021/05/15 05:51:05;;;;;;;6.20;5.70;;;11.40;99.90;;;;;;5054988;28;20208;-67
2021/05/15 05:53:31;;;;;;;5.80;5.40;;;11.60;99.90;;;;;;5055122;28;20224;-67
2021/05/15 05:55:57;;;;;;;6.07;5.50;;;11.60;99.90;;;;;;5055356;28;20183;-67
2021/05/15 05:58:23;;;;;;;5.73;5.33;;;11.80;99.90;;;;;;5054934;28;20175;-66
2021/05/15 06:00:48;;;;;;;5.30;4.90;;;11.90;99.90;;;;;;5054878;28;20213;-67
2021/05/15 06:03:14;;;;;;;5.23;4.77;;;12.00;99.90;;;;;;5054858;28;20211;-66
2021/05/15 06:05:39;;;;;;;5.33;5.00;;;12.00;99.90;;;;;;5055037;28;20179;-66
2021/05/15 06:08:10;;;;;;;5.67;5.10;;;12.10;99.90;;;;;;5052180;28;20175;-66
2021/05/15 06:10:37;;;;;;;6.37;5.73;;;11.90;99.90;;;;;;5054794;28;20221;-66
2021/05/15 06:13:08;;;;;;;5.80;5.30;;;11.90;99.90;;;;;;5054868;28;20210;-66
2021/05/15 06:15:34;;;;;;;8.53;5.60;;;11.80;99.90;;;;;;5054648;28;20256;-65
2021/05/15 06:18:00;;;;;;;6.10;5.57;;;11.90;99.90;;;;;;5054617;28;20183;-65
2021/05/15 06:20:26;;;;;;;6.23;5.70;;;11.90;99.90;;;;;;5054244;28;20206;-63
2021/05/15 06:22:51;;;;;;;6.73;6.00;;;11.80;99.90;;;;;;5054487;28;20206;-63
2021/05/15 06:25:17;;;;;;;7.97;7.27;;;11.90;99.90;;;;;;5054565;28;20260;-63
2021/05/15 06:27:42;;;;;;;8.97;7.67;;;11.90;99.90;;;;;;5054149;28;20175;-63
2021/05/15 06:30:09;;;;;;;7.70;7.00;;;11.90;99.90;;;;;;5054255;28;20171;-64
2021/05/15 06:32:35;;;;;;;7.23;6.73;;;12.00;99.90;;;;;;5054104;28;20214;-65
2021/05/15 06:35:00;;;;;;;7.93;7.17;;;12.00;99.90;;;;;;5054688;28;20179;-65
2021/05/15 06:37:26;;;;;;;8.27;7.57;;;12.00;99.90;;;;;;5054480;28;20182;-66
2021/05/15 06:39:52;;;;;;;8.00;7.30;;;12.20;99.90;;;;;;5053981;28;20286;-64
2021/05/15 06:42:18;;;;;;;9.37;7.93;;;12.30;99.90;;;;;;5054103;28;20276;-63
2021/05/15 06:44:43;;;;;;;7.53;6.83;;;12.40;99.90;;;;;;5054072;28;20187;-62
2021/05/15 06:47:12;;;;;;;7.37;6.67;;;12.70;99.90;;;;;;5054208;28;20178;-63
2021/05/15 06:49:37;;;;;;;8.97;7.20;;;12.90;99.90;;;;;;5053038;28;20592;-63
2021/05/15 06:52:03;;;;;;;7.23;6.63;;;13.00;99.90;;;;;;5053772;28;20183;-62
2021/05/15 06:54:29;;;;;;;8.00;7.10;;;13.00;99.90;;;;;;5053806;28;20199;-64
2021/05/15 06:56:54;;;;;;;7.77;6.73;;;13.00;99.90;;;;;;5054182;28;20262;-67
2021/05/15 06:59:20;;;;;;;7.50;6.90;;;12.90;99.90;;;;;;5052144;28;20656;-65
2021/05/15 07:01:45;;;;;;;7.40;6.80;;;12.90;99.90;;;;;;5053420;28;20341;-66
2021/05/15 07:04:11;;;;;;;7.43;6.80;;;12.80;99.90;;;;;;5042506;28;20207;-65
2021/05/15 07:06:37;;;;;;;7.83;7.03;;;12.70;99.90;;;;;;5036347;28;20538;-64
2021/05/15 07:09:03;;;;;;;8.50;7.80;;;12.80;99.90;;;;;;5053845;28;20645;-64
2021/05/15 07:11:29;;;;;;;7.47;6.90;;;12.80;99.90;;;;;;5053243;28;20215;-64
2021/05/15 07:13:54;;;;;;;7.70;7.07;;;12.80;99.90;;;;;;5053623;28;20628;-62
2021/05/15 07:16:20;;;;;;;8.13;7.33;;;12.80;99.90;;;;;;5053654;28;20542;-63
2021/05/15 07:18:45;;;;;;;7.20;6.60;;;12.80;99.90;;;;;;5053420;28;20261;-64
2021/05/15 07:21:11;;;;;;;7.50;6.90;;;12.80;99.90;;;;;;5053160;28;20561;-66
2021/05/15 07:23:37;;;;;;;11.93;7.83;;;12.90;99.90;;;;;;5053173;28;20199;-63
2021/05/15 07:26:05;;;;;;;7.10;6.40;;;13.00;99.90;;;;;;5053457;28;20309;-64
2021/05/15 07:28:30;;;;;;;8.50;7.37;;;13.20;99.90;;;;;;5053273;28;20332;-66
2021/05/15 07:30:56;;;;;;;7.43;6.70;;;13.30;99.90;;;;;;5053224;28;20688;-64
2021/05/15 07:33:22;;;;;;;6.53;6.00;;;13.50;99.90;;;;;;5052891;28;20222;-65
2021/05/15 07:35:47;;;;;;;8.03;6.60;;;13.70;99.90;;;;;;5053115;28;20206;-65
2021/05/15 07:38:13;;;;;;;6.83;6.23;;;13.90;99.90;;;;;;5053307;28;20175;-66
2021/05/15 07:40:39;;;;;;;8.60;6.03;;;14.20;99.90;;;;;;5052618;28;20210;-65
2021/05/15 07:43:05;;;;;;;6.30;5.70;;;14.40;99.90;;;;;;5053066;28;20198;-66
2021/05/15 07:45:31;;;;;;;6.47;5.70;;;14.70;99.90;;;;;;5052844;28;20197;-65
2021/05/15 07:47:57;;;;;;;6.10;5.60;;;14.80;99.90;;;;;;5052306;28;20167;-66
2021/05/15 07:50:23;;;;;;;6.33;5.70;;;14.90;99.90;;;;;;5052532;28;20257;-66
2021/05/15 07:52:49;;;;;;;6.20;5.60;;;14.90;99.90;;;;;;5053193;28;20187;-65
2021/05/15 07:55:14;;;;;;;6.30;5.40;;;15.10;99.90;;;;;;5052715;28;20190;-66
2021/05/15 07:57:40;;;;;;;5.90;5.40;;;15.20;99.90;;;;;;5052847;28;20174;-64
2021/05/15 08:00:07;;;;;;;6.13;5.33;;;15.50;99.90;;;;;;5051447;28;20187;-66
2021/05/15 08:02:34;;;;;;;5.00;4.50;;;15.90;99.90;;;;;;5052558;28;20199;-66
2021/05/15 08:05:00;;;;;;;6.47;5.80;;;16.10;99.90;;;;;;5052717;28;20797;-65
2021/05/15 08:07:26;;;;;;;5.63;5.13;;;16.10;99.90;;;;;;5052548;28;20262;-65
2021/05/15 08:09:52;;;;;;;5.50;5.00;;;16.40;99.90;;;;;;5052417;28;20637;-66
2021/05/15 08:12:17;;;;;;;4.93;4.60;;;16.50;99.90;;;;;;5052236;28;20183;-65
2021/05/15 08:14:43;;;;;;;5.30;4.53;;;16.50;99.90;;;;;;5052515;28;20170;-66
2021/05/15 08:17:09;;;;;;;4.87;4.40;;;16.50;99.90;;;;;;5052406;28;20648;-66
2021/05/15 08:19:35;;;;;;;4.87;4.47;;;16.40;99.90;;;;;;5052499;28;20544;-64
2021/05/15 08:22:00;;;;;;;4.80;4.30;;;16.50;99.90;;;;;;5051911;28;20206;-63
2021/05/15 08:24:26;;;;;;;5.13;4.03;;;16.90;99.90;;;;;;5052228;28;20611;-63
2021/05/15 08:26:52;;;;;;;7.80;4.43;;;17.50;99.90;;;;;;5052121;28;20649;-64
2021/05/15 08:29:20;;;;;;;4.70;4.30;;;17.70;99.90;;;;;;5051974;28;20206;-64
2021/05/15 08:31:46;;;;;;;5.83;4.70;;;18.00;99.90;;;;;;5051842;28;20177;-65
2021/05/15 08:34:11;;;;;;;4.90;4.10;;;18.10;99.90;;;;;;5051811;28;20207;-65
2021/05/15 08:36:37;;;;;;;6.50;3.60;;;18.60;99.90;;;;;;5052108;28;20185;-65
2021/05/15 08:39:05;;;;;;;6.07;4.30;;;19.30;99.90;;;;;;5051904;28;20262;-65
2021/05/15 08:41:32;;;;;;;4.57;4.18;;;19.50;99.90;;;;;;5051445;28;20199;-65
2021/05/15 08:44:01;;;;;;;5.63;3.73;;;19.50;99.90;;;;;;5051812;28;20634;-65
2021/05/15 08:46:30;;;;;;;4.37;4.07;;;19.20;99.90;;;;;;5051931;28;20254;-65
2021/05/15 08:48:58;;;;;;;4.47;4.17;;;18.90;99.90;;;;;;5051752;28;20174;-65
2021/05/15 08:51:24;;;;;;;5.43;3.70;;;18.70;99.90;;;;;;5051553;28;20175;-65
2021/05/15 08:53:51;;;;;;;4.77;4.10;;;18.90;99.90;;;;;;5051560;28;20618;-64
2021/05/15 08:56:17;;;;;;;4.23;3.93;;;19.10;99.90;;;;;;5051458;28;20190;-64
2021/05/15 08:58:43;;;;;;;3.57;3.27;;;19.00;99.90;;;;;;5051648;28;20261;-64
2021/05/15 09:01:12;;;;;;;4.55;3.72;;;19.40;99.90;;;;;;5051217;28;20737;-65
2021/05/15 09:03:38;;;;;;;4.53;3.70;;;19.70;99.90;;;;;;5051510;28;20596;-65
2021/05/15 09:06:05;;;;;;;4.77;3.40;;;19.80;99.90;;;;;;5051647;28;20190;-65
2021/05/15 09:08:30;;;;;;;4.60;3.17;;;20.00;99.90;;;;;;5051742;28;20301;-65
2021/05/15 09:10:56;;;;;;;4.03;3.65;;;19.90;99.90;;;;;;5051033;28;20687;-66
2021/05/15 09:13:27;;;;;;;3.92;3.38;;;20.10;99.90;;;;;;5051157;28;20243;-67
2021/05/15 09:15:57;;;;;;;4.82;4.07;;;20.70;99.90;;;;;;5051623;28;20644;-64
2021/05/15 09:18:37;;;;;;;4.32;3.92;;;20.60;99.90;;;;;;5051459;28;20179;-64
2021/05/15 09:21:06;;;;;;;4.40;4.00;;;20.70;99.90;;;;;;5050981;28;20679;-64
2021/05/15 09:23:39;;;;;;;5.97;3.95;;;20.70;99.90;;;;;;5051487;28;20287;-66
2021/05/15 09:26:25;;;;;;;5.50;4.18;;;21.10;99.90;;;;;;5050965;28;20697;-67
2021/05/15 09:28:54;;;;;;;4.95;3.97;;;21.00;99.90;;;;;;5051589;28;20250;-66
2021/05/15 09:31:29;;;;;;;4.32;3.75;;;21.10;99.90;;;;;;5050701;28;20178;-65
2021/05/15 09:34:06;;;;;;;4.65;4.25;;;21.30;99.90;;;;;;5250841;22;20290;-64
2021/05/15 09:36:43;;;;;;;4.55;4.18;;;21.00;99.90;;;;;;5089841;28;20181;-65
2021/05/15 09:39:15;;;;;;;4.83;4.40;;;20.70;99.90;;;;;;5091697;28;20184;-65
2021/05/15 09:41:50;;;;;;;5.37;4.63;;;19.90;99.90;;;;;;5071454;28;20212;-65
2021/05/15 09:44:19;;;;;;;5.77;4.80;;;19.00;99.90;;;;;;5071256;28;20221;-65
2021/05/15 09:46:47;;;;;;;6.13;4.80;;;18.30;99.90;;;;;;5071041;28;20182;-65
2021/05/15 09:49:13;;;;;;;4.77;4.37;;;18.20;99.90;;;;;;5071197;28;20516;-65
2021/05/15 09:51:54;;;;;;;5.40;4.80;;;18.30;99.90;;;;;;5069110;28;20186;-65
2021/05/15 09:54:25;;;;;;;4.70;4.30;;;18.40;99.90;;;;;;5070866;28;20576;-65
2021/05/15 09:56:58;;;;;;;4.97;4.27;;;18.70;99.90;;;;;;5068197;28;20553;-65
2021/05/15 09:59:28;;;;;;;4.40;4.10;;;18.60;99.90;;;;;;5050970;28;20178;-65
2021/05/15 10:01:59;;;;;;;8.30;4.40;;;18.20;99.90;;;;;;5069611;28;20297;-65
2021/05/15 10:04:25;;;;;;;5.40;4.90;;;17.30;99.90;;;;;;5070384;28;20295;-64
2021/05/15 10:06:51;;;;;;;5.13;4.50;;;16.40;99.90;;;;;;5070605;28;20178;-65
2021/05/15 10:09:34;;;;;;;7.43;4.33;;;15.50;99.90;;;;;;5070817;28;20177;-66
2021/05/15 10:12:02;;;;;;;6.00;4.80;;;14.20;99.90;;;;;;5068535;28;20185;-65
2021/05/15 10:14:28;;;;;;;5.67;4.83;;;13.50;99.90;;;;;;5069368;28;20198;-65
2021/05/15 10:16:55;;;;;;;8.97;5.17;;;13.30;99.90;;;;;;5070694;28;20189;-64
2021/05/15 10:19:21;;;;;;;7.40;5.87;;;13.50;99.90;;;;;;5070392;28;20178;-65
2021/05/15 10:21:47;;;;;;;7.00;5.33;;;13.80;99.90;;;;;;5070604;28;20202;-65
2021/05/15 10:24:25;;;;;;;7.67;5.50;;;14.10;99.90;;;;;;5072084;28;20185;-65
2021/05/15 10:26:58;;;;;;;57.73;21.23;;;14.30;99.90;;;;;;5074644;28;20178;-66
2021/05/15 10:29:36;;;;;;;6.73;5.13;;;14.50;99.90;;;;;;5070113;28;20265;-65
2021/05/15 10:32:02;;;;;;;6.30;5.70;;;14.60;99.90;;;;;;5074078;28;20174;-65
2021/05/15 10:34:34;;;;;;;6.47;5.87;;;14.70;99.90;;;;;;5073964;28;20859;-65
2021/05/15 10:37:03;;;;;;;7.00;6.40;;;14.60;99.90;;;;;;5074497;28;20519;-65
2021/05/15 10:39:33;;;;;;;7.10;6.40;;;14.70;99.90;;;;;;5074269;28;20184;-65
2021/05/15 10:42:01;;;;;;;8.17;6.60;;;14.80;99.90;;;;;;5074289;28;20236;-65
2021/05/15 10:44:45;;;;;;;7.33;6.50;;;14.80;99.90;;;;;;5074010;28;20285;-65
2021/05/15 10:47:12;;;;;;;6.83;6.23;;;14.60;99.90;;;;;;5074242;28;20166;-65
2021/05/15 10:49:38;;;;;;;7.17;6.57;;;14.30;99.90;;;;;;5073989;28;20174;-66
2021/05/15 10:52:12;;;;;;;6.60;6.00;;;14.00;99.90;;;;;;5073923;28;20179;-65
2021/05/15 10:54:43;;;;;;;6.23;5.70;;;13.90;99.90;;;;;;5073986;28;20202;-64
2021/05/15 10:57:12;;;;;;;7.47;5.80;;;13.80;99.90;;;;;;5074023;28;20252;-65
2021/05/15 10:59:40;;;;;;;6.53;5.13;;;13.80;99.90;;;;;;5073453;28;20535;-66
2021/05/15 11:02:10;;;;;;;5.67;5.17;;;14.00;99.90;;;;;;5068673;28;20316;-65
2021/05/15 11:04:51;;;;;;;4.80;4.43;;;14.20;99.90;;;;;;5069507;28;20201;-65
2021/05/15 11:07:20;;;;;;;4.57;4.03;;;14.50;99.90;;;;;;5072395;28;20177;-65
2021/05/15 11:09:54;;;;;;;4.70;4.30;;;14.80;99.90;;;;;;5073009;28;20184;-66
2021/05/15 11:12:20;;;;;;;4.20;3.90;;;15.10;99.90;;;;;;5056220;28;20182;-66
2021/05/15 11:14:48;;;;;;;3.90;3.70;;;15.40;99.90;;;;;;5069750;28;20242;-65
2021/05/15 11:17:28;;;;;;;4.03;3.73;;;15.80;99.90;;;;;;5073263;28;20181;-65
2021/05/15 11:19:59;;;;;;;3.90;3.60;;;16.30;99.90;;;;;;5073142;28;20170;-65
2021/05/15 11:22:35;;;;;;;3.80;3.50;;;16.50;99.90;;;;;;5073196;28;20198;-65
2021/05/15 11:25:28;;;;;;;3.67;3.33;;;16.80;99.90;;;;;;5073594;28;20184;-65
2021/05/15 11:28:00;;;;;;;13.10;3.40;;;16.80;99.90;;;;;;5063887;28;20222;-65
2021/05/15 11:30:27;;;;;;;4.23;3.40;;;16.80;99.90;;;;;;5073153;28;20166;-65
2021/05/15 11:32:56;;;;;;;8.00;4.47;;;16.90;99.90;;;;;;5073243;28;20580;-65
2021/05/15 11:35:21;;;;;;;3.83;3.53;;;17.00;99.90;;;;;;5064012;28;20167;-65
2021/05/15 11:37:47;;;;;;;4.03;3.73;;;17.20;99.90;;;;;;5057806;28;20188;-65
2021/05/15 11:40:14;;;;;;;4.80;3.30;;;17.50;99.90;;;;;;5072849;28;20181;-65
2021/05/15 11:42:39;;;;;;;3.63;3.33;;;18.00;99.90;;;;;;5072931;28;20186;-65
2021/05/15 11:45:05;;;;;;;3.50;3.20;;;18.40;99.90;;;;;;5073011;28;20177;-65
2021/05/15 11:47:32;;;;;;;5.27;3.40;;;18.50;99.90;;;;;;5072978;28;20281;-65
2021/05/15 11:50:00;;;;;;;3.87;3.50;;;18.50;99.90;;;;;;5072601;28;20186;-65
2021/05/15 11:52:31;;;;;;;3.50;3.30;;;18.50;99.90;;;;;;5072717;28;20210;-65
2021/05/15 11:54:56;;;;;;;16.03;9.80;;;18.60;99.90;;;;;;5072999;28;20259;-65
2021/05/15 11:57:29;;;;;;;8.07;5.67;;;18.60;99.90;;;;;;5072585;28;20182;-65
2021/05/15 12:00:08;;;;;;;3.50;3.20;;;18.60;99.90;;;;;;5072440;28;20178;-66
2021/05/15 12:02:34;;;;;;;4.37;3.23;;;18.60;99.90;;;;;;5072300;28;20236;-65
2021/05/15 12:04:59;;;;;;;2.83;2.63;;;18.70;99.90;;;;;;5071550;28;20636;-65
2021/05/15 12:07:25;;;;;;;2.70;2.50;;;18.80;99.90;;;;;;5072315;28;20182;-65
2021/05/15 12:09:51;;;;;;;2.67;2.47;;;18.90;99.90;;;;;;5072492;28;20189;-65
2021/05/15 12:12:16;;;;;;;3.20;2.60;;;18.80;99.90;;;;;;5072235;28;20182;-64
2021/05/15 12:14:43;;;;;;;3.23;2.93;;;18.80;99.90;;;;;;5072445;28;20251;-65
2021/05/15 12:17:14;;;;;;;3.07;2.87;;;18.70;99.90;;;;;;5072466;28;20177;-64
2021/05/15 12:19:39;;;;;;;3.40;2.73;;;18.60;99.90;;;;;;5072315;28;20189;-65
2021/05/15 12:22:10;;;;;;;3.00;2.70;;;18.70;99.90;;;;;;5071889;28;20225;-64
2021/05/15 12:24:38;;;;;;;3.20;2.30;;;19.00;99.90;;;;;;5072203;28;20225;-65
2021/05/15 12:27:20;;;;;;;4.00;2.80;;;19.30;99.90;;;;;;5072401;28;20264;-64
2021/05/15 12:30:00;;;;;;;2.83;2.63;;;19.50;99.90;;;;;;5071722;28;20182;-65
2021/05/15 12:32:28;;;;;;;4.03;2.70;;;19.20;99.90;;;;;;5072169;28;20178;-64
2021/05/15 12:35:09;;;;;;;2.90;2.70;;;18.80;99.90;;;;;;5071946;28;20298;-64
2021/05/15 12:37:37;;;;;;;3.80;2.77;;;18.90;99.90;;;;;;5072174;28;20227;-64
2021/05/15 12:40:12;;;;;;;4.53;2.63;;;19.00;99.90;;;;;;5071515;28;20188;-64
2021/05/15 12:42:37;;;;;;;3.00;2.70;;;19.10;99.90;;;;;;5071903;28;20197;-64
2021/05/15 12:45:11;;;;;;;4.13;2.50;;;19.30;99.90;;;;;;5070795;28;20178;-64
2021/05/15 12:47:37;;;;;;;4.47;2.77;;;19.70;99.90;;;;;;5071336;28;20204;-65
2021/05/15 12:50:14;;;;;;;2.80;2.60;;;20.20;99.90;;;;;;5071667;28;20170;-64